Time;durP1;ratioP1;P1;durP2;ratioP2;P2;SDS_P1;SDS_P2;PMS_P1;PMS_P2;Temp;Humidity;BMP_temperature;BMP_pressure;BME280_temperature;BME280_humidity;BME280_pressure;Samples;Min_cycle;Max_cycle;Signal;HPM_P1;HPM_P2
2022/04/09 00:00:48;;;;;;;11.82;5.97;;;12.20;76.20;;;;;;5096922;28;20032;-12
2022/04/09 00:03:14;;;;;;;14.57;6.07;;;12.10;76.20;;;;;;5096888;28;20055;-12
2022/04/09 00:05:39;;;;;;;12.02;4.97;;;12.00;76.40;;;;;;5097074;28;20024;-12
2022/04/09 00:08:05;;;;;;;13.15;6.40;;;11.90;76.60;;;;;;5096372;28;20039;-12
2022/04/09 00:10:32;;;;;;;22.27;9.43;;;11.80;76.80;;;;;;5096835;28;20036;-12
2022/04/09 00:12:58;;;;;;;28.90;10.65;;;11.70;77.00;;;;;;5097036;28;20031;-12
2022/04/09 00:15:24;;;;;;;20.30;9.02;;;11.50;77.30;;;;;;5096558;28;20032;-12
2022/04/09 00:17:50;;;;;;;22.02;8.55;;;11.40;77.60;;;;;;5096850;28;20035;-12
2022/04/09 00:20:18;;;;;;;22.40;11.27;;;11.40;78.00;;;;;;5096432;28;20072;-11
2022/04/09 00:22:45;;;;;;;31.83;12.30;;;11.30;78.30;;;;;;5097406;28;20024;-12
2022/04/09 00:25:14;;;;;;;26.85;10.43;;;11.30;78.40;;;;;;5096742;28;20030;-10
2022/04/09 00:27:40;;;;;;;30.20;12.10;;;11.20;78.80;;;;;;5096655;28;20024;-12
2022/04/09 00:30:08;;;;;;;22.95;10.57;;;11.20;79.20;;;;;;5096200;28;20031;-12
2022/04/09 00:32:35;;;;;;;24.80;9.65;;;11.20;80.20;;;;;;5096338;28;20026;-12
2022/04/09 00:35:02;;;;;;;17.63;8.68;;;11.20;79.40;;;;;;5096523;28;20078;-12
2022/04/09 00:37:29;;;;;;;18.27;9.18;;;11.20;79.40;;;;;;5096469;28;20020;-11
2022/04/09 00:39:56;;;;;;;25.17;10.95;;;11.20;79.40;;;;;;5096338;28;20032;-12
2022/04/09 00:42:22;;;;;;;18.70;9.27;;;11.30;79.60;;;;;;5095732;28;20507;-12
2022/04/09 00:44:50;;;;;;;20.85;8.60;;;11.30;79.50;;;;;;5095986;28;20028;-13
2022/04/09 00:47:16;;;;;;;19.60;7.60;;;11.20;79.50;;;;;;5095945;28;20024;-12
2022/04/09 00:49:42;;;;;;;15.43;6.78;;;11.30;79.40;;;;;;5096241;28;20081;-12
2022/04/09 00:52:09;;;;;;;12.93;6.35;;;11.30;79.40;;;;;;5095815;28;20433;-12
2022/04/09 00:54:42;;;;;;;15.20;6.25;;;11.40;79.30;;;;;;5095812;28;20032;-11
2022/04/09 00:57:10;;;;;;;12.07;5.05;;;11.40;79.10;;;;;;5096065;28;20074;-12
2022/04/09 00:59:39;;;;;;;15.15;5.30;;;11.40;79.00;;;;;;5096107;28;20031;-12
2022/04/09 01:02:05;;;;;;;9.88;3.85;;;11.60;78.70;;;;;;5095555;28;20035;-12
2022/04/09 01:04:32;;;;;;;11.77;3.50;;;11.60;78.60;;;;;;5094662;28;20499;-13
2022/04/09 01:07:00;;;;;;;8.30;3.28;;;11.80;78.20;;;;;;5095915;28;20024;-12
2022/04/09 01:09:26;;;;;;;9.10;3.08;;;11.90;78.00;;;;;;5095278;28;20066;-12
2022/04/09 01:11:53;;;;;;;8.80;3.47;;;11.90;77.80;;;;;;5095825;28;20025;-12
2022/04/09 01:14:19;;;;;;;13.80;3.78;;;11.90;77.70;;;;;;5095546;28;20042;-12
2022/04/09 01:16:46;;;;;;;9.75;3.63;;;12.00;77.40;;;;;;5095639;28;20446;-11
2022/04/09 01:19:12;;;;;;;21.17;7.80;;;12.00;77.40;;;;;;5095355;28;20104;-13
2022/04/09 01:21:39;;;;;;;22.45;9.98;;;12.10;77.00;;;;;;5095553;28;20122;-12
2022/04/09 01:24:06;;;;;;;34.08;10.45;;;12.00;77.10;;;;;;5095161;28;20547;-12
2022/04/09 01:26:32;;;;;;;24.90;8.32;;;11.90;78.10;;;;;;5095297;28;20078;-12
2022/04/09 01:28:59;;;;;;;26.20;10.70;;;11.70;78.00;;;;;;5095249;28;20031;-12
2022/04/09 01:31:25;;;;;;;27.20;10.35;;;11.60;79.50;;;;;;5095138;28;20061;-12
2022/04/09 01:33:51;;;;;;;25.90;10.25;;;11.40;79.10;;;;;;5095124;28;20028;-11
2022/04/09 01:36:17;;;;;;;24.38;10.18;;;11.30;79.60;;;;;;5095116;28;20480;-12
2022/04/09 01:38:42;;;;;;;21.08;8.57;;;11.20;79.60;;;;;;5095213;28;20035;-11
2022/04/09 01:41:08;;;;;;;18.05;7.78;;;11.10;80.00;;;;;;5093618;28;20553;-12
2022/04/09 01:43:34;;;;;;;18.70;7.13;;;11.00;79.90;;;;;;5094888;28;20492;-13
2022/04/09 01:46:01;;;;;;;16.25;6.78;;;10.90;80.10;;;;;;5095141;28;20038;-13
2022/04/09 01:48:26;;;;;;;17.90;7.93;;;10.90;80.00;;;;;;5094552;28;20028;-13
2022/04/09 01:50:52;;;;;;;19.95;8.60;;;10.90;80.20;;;;;;5095027;28;20025;-12
2022/04/09 01:53:19;;;;;;;20.63;8.23;;;10.80;80.30;;;;;;5094898;28;20024;-13
2022/04/09 01:55:45;;;;;;;24.77;10.10;;;10.70;80.30;;;;;;5094873;28;20036;-12
2022/04/09 01:58:11;;;;;;;29.95;11.23;;;10.60;80.50;;;;;;5094561;28;20115;-13
2022/04/09 02:00:37;;;;;;;20.50;7.75;;;10.50;80.70;;;;;;5094257;28;20032;-13
2022/04/09 02:03:03;;;;;;;29.88;9.88;;;10.50;81.20;;;;;;5094446;28;20024;-12
2022/04/09 02:05:29;;;;;;;20.88;8.07;;;10.40;81.00;;;;;;5094443;28;20027;-12
2022/04/09 02:07:56;;;;;;;35.00;10.55;;;10.40;81.20;;;;;;5094348;28;20430;-12
2022/04/09 02:10:22;;;;;;;31.48;12.80;;;10.40;82.40;;;;;;5094231;28;20081;-12
2022/04/09 02:12:48;;;;;;;25.33;9.75;;;10.40;82.30;;;;;;5094628;28;20028;-12
2022/04/09 02:15:17;;;;;;;26.98;10.68;;;10.40;83.60;;;;;;5093958;28;20032;-13
2022/04/09 02:17:44;;;;;;;21.63;8.98;;;10.40;82.60;;;;;;5094564;28;20020;-11
2022/04/09 02:20:12;;;;;;;25.38;8.95;;;10.40;82.50;;;;;;5094077;28;20396;-13
2022/04/09 02:22:40;;;;;;;18.42;7.85;;;10.40;82.30;;;;;;5094185;28;20082;-13
2022/04/09 02:25:10;;;;;;;27.85;9.73;;;10.40;82.40;;;;;;5094074;28;20122;-13
2022/04/09 02:27:35;;;;;;;19.98;7.93;;;10.30;82.20;;;;;;5094339;28;20518;-12
2022/04/09 02:30:04;;;;;;;26.00;10.57;;;10.30;82.20;;;;;;5094065;28;20058;-13
2022/04/09 02:32:30;;;;;;;22.85;9.48;;;10.30;83.40;;;;;;5093719;28;20035;-13
2022/04/09 02:34:56;;;;;;;23.67;8.63;;;10.20;82.80;;;;;;5094241;28;20024;-13
2022/04/09 02:37:23;;;;;;;16.38;7.90;;;10.20;82.80;;;;;;5093862;28;20029;-13
2022/04/09 02:39:49;;;;;;;17.27;7.55;;;10.20;82.70;;;;;;5092518;28;20031;-13
2022/04/09 02:42:15;;;;;;;19.48;7.03;;;10.10;82.50;;;;;;5092253;28;20119;-13
2022/04/09 02:44:45;;;;;;;19.90;8.48;;;10.10;82.50;;;;;;5093850;28;20166;-11
2022/04/09 02:47:11;;;;;;;22.33;9.07;;;10.00;82.60;;;;;;5093727;28;20024;-13
2022/04/09 02:49:37;;;;;;;18.35;7.57;;;10.00;82.60;;;;;;5093615;28;20107;-13
2022/04/09 02:52:04;;;;;;;20.33;7.93;;;9.90;82.60;;;;;;5093859;28;20028;-13
2022/04/09 02:54:30;;;;;;;30.60;9.80;;;9.90;82.40;;;;;;5093299;28;20107;-13
2022/04/09 02:56:56;;;;;;;18.92;9.07;;;9.90;82.50;;;;;;5093533;28;20066;-13
2022/04/09 02:59:22;;;;;;;35.15;12.48;;;9.90;82.50;;;;;;5093509;28;20028;-13
2022/04/09 03:01:48;;;;;;;30.50;10.20;;;9.90;82.70;;;;;;5093708;28;20028;-13
2022/04/09 03:04:15;;;;;;;25.60;10.38;;;9.80;83.70;;;;;;5093226;28;20028;-13
2022/04/09 03:06:42;;;;;;;22.98;9.27;;;9.80;83.20;;;;;;5093739;28;20051;-12
2022/04/09 03:09:08;;;;;;;21.17;8.90;;;9.70;82.80;;;;;;5093269;28;20526;-12
2022/04/09 03:11:34;;;;;;;18.48;9.45;;;9.70;82.90;;;;;;5093282;28;20114;-13
2022/04/09 03:14:00;;;;;;;17.63;8.02;;;9.60;83.20;;;;;;5093596;28;20059;-13
2022/04/09 03:16:26;;;;;;;24.15;9.52;;;9.60;83.20;;;;;;5093355;28;20052;-13
2022/04/09 03:18:52;;;;;;;19.40;8.05;;;9.50;83.70;;;;;;5093345;28;20028;-13
2022/04/09 03:21:17;;;;;;;32.45;12.15;;;9.50;83.60;;;;;;5093169;28;20024;-13
2022/04/09 03:23:43;;;;;;;41.13;12.98;;;9.40;84.00;;;;;;5091893;28;20078;-13
2022/04/09 03:26:11;;;;;;;25.27;10.82;;;9.40;85.20;;;;;;5092505;28;20070;-12
2022/04/09 03:28:38;;;;;;;25.13;10.13;;;9.40;84.80;;;;;;5092965;28;20026;-12
2022/04/09 03:31:04;;;;;;;24.33;9.27;;;9.40;85.50;;;;;;5093403;28;20599;-13
2022/04/09 03:33:31;;;;;;;25.17;9.73;;;9.40;84.50;;;;;;5093725;28;20024;-13
2022/04/09 03:35:57;;;;;;;21.35;10.35;;;9.40;84.20;;;;;;5093116;28;20028;-13
2022/04/09 03:38:23;;;;;;;32.92;11.48;;;9.40;84.30;;;;;;5093362;28;20034;-13
2022/04/09 03:40:50;;;;;;;25.60;10.77;;;9.40;84.90;;;;;;5093163;28;20043;-13
2022/04/09 03:43:16;;;;;;;24.70;10.38;;;9.40;85.20;;;;;;5093239;28;20020;-13
2022/04/09 03:45:41;;;;;;;17.85;9.25;;;9.40;84.50;;;;;;5093002;28;20031;-14
2022/04/09 03:48:08;;;;;;;28.45;12.00;;;9.40;84.20;;;;;;5092985;28;20024;-13
2022/04/09 03:50:36;;;;;;;18.67;8.35;;;9.40;84.20;;;;;;5092781;28;20028;-12
2022/04/09 03:53:03;;;;;;;30.20;12.32;;;9.50;83.80;;;;;;5092911;28;20525;-12
2022/04/09 03:55:29;;;;;;;21.75;9.52;;;9.40;84.30;;;;;;5093228;28;20028;-12
2022/04/09 03:57:57;;;;;;;23.90;9.90;;;9.50;84.40;;;;;;5092889;28;20024;-12
2022/04/09 04:00:23;;;;;;;26.60;11.38;;;9.50;84.10;;;;;;5092895;28;20055;-12
2022/04/09 04:02:49;;;;;;;19.80;9.07;;;9.50;84.30;;;;;;5091625;28;20488;-13
2022/04/09 04:05:15;;;;;;;22.10;9.93;;;9.50;84.20;;;;;;5093144;28;20076;-13
2022/04/09 04:07:48;;;;;;;30.30;12.90;;;9.50;84.20;;;;;;5092798;28;20111;-13
2022/04/09 04:10:13;;;;;;;31.30;12.65;;;9.40;84.40;;;;;;5092584;28;20044;-14
2022/04/09 04:12:40;;;;;;;29.58;12.38;;;9.40;84.10;;;;;;5092651;28;20111;-13
2022/04/09 04:15:08;;;;;;;28.20;10.93;;;9.40;84.80;;;;;;5092752;28;20476;-13
2022/04/09 04:17:42;;;;;;;21.92;9.43;;;9.30;84.50;;;;;;5093037;28;20036;-13
2022/04/09 04:20:10;;;;;;;27.50;10.55;;;9.30;85.00;;;;;;5092692;28;20020;-14
2022/04/09 04:22:36;;;;;;;30.58;10.98;;;9.30;84.50;;;;;;5092739;28;20107;-13
2022/04/09 04:25:04;;;;;;;27.00;13.10;;;9.30;84.60;;;;;;5092571;28;20085;-12
2022/04/09 04:27:31;;;;;;;24.05;11.50;;;9.30;84.80;;;;;;5092660;28;20020;-13
2022/04/09 04:30:02;;;;;;;29.05;11.50;;;9.20;84.80;;;;;;5092899;28;20039;-12
2022/04/09 04:32:29;;;;;;;23.92;10.85;;;9.20;84.70;;;;;;5091492;28;20021;-12
2022/04/09 04:34:55;;;;;;;20.95;10.73;;;9.10;84.80;;;;;;5093572;28;20024;-12
2022/04/09 04:37:21;;;;;;;38.88;16.75;;;9.10;84.90;;;;;;5093519;28;20032;-12
2022/04/09 04:39:47;;;;;;;19.23;10.40;;;9.10;86.00;;;;;;5096053;28;20024;-13
2022/04/09 04:42:13;;;;;;;32.65;15.05;;;9.00;86.00;;;;;;5096243;28;20119;-14
2022/04/09 04:44:39;;;;;;;29.92;14.38;;;9.00;85.80;;;;;;5096181;28;20114;-14
2022/04/09 04:47:05;;;;;;;41.65;17.42;;;9.10;85.80;;;;;;5095973;28;20020;-13
2022/04/09 04:49:32;;;;;;;38.25;15.88;;;9.10;86.10;;;;;;5095933;28;20059;-13
2022/04/09 04:51:58;;;;;;;27.08;12.90;;;9.10;86.50;;;;;;5096186;28;20028;-12
2022/04/09 04:54:24;;;;;;;33.17;15.27;;;9.20;85.70;;;;;;5095961;28;20502;-12
2022/04/09 04:56:50;;;;;;;25.10;13.20;;;9.20;86.10;;;;;;5095828;28;20031;-12
2022/04/09 04:59:16;;;;;;;34.28;15.25;;;9.30;86.20;;;;;;5096079;28;20063;-12
2022/04/09 05:01:41;;;;;;;24.52;11.63;;;9.30;86.00;;;;;;5095671;28;20434;-12
2022/04/09 05:04:09;;;;;;;28.20;12.13;;;9.30;86.10;;;;;;5095979;28;20483;-12
2022/04/09 05:06:35;;;;;;;26.67;12.43;;;9.20;86.50;;;;;;5095481;28;20514;-12
2022/04/09 05:09:01;;;;;;;25.63;12.25;;;9.20;86.50;;;;;;5095206;28;20071;-13
2022/04/09 05:11:27;;;;;;;23.65;11.07;;;9.20;86.10;;;;;;5095540;28;20020;-14
2022/04/09 05:13:53;;;;;;;24.75;11.90;;;9.30;85.70;;;;;;5095839;28;20032;-13
2022/04/09 05:16:19;;;;;;;29.83;14.20;;;9.30;85.70;;;;;;5095223;28;20119;-13
2022/04/09 05:18:44;;;;;;;29.35;13.52;;;9.40;85.90;;;;;;5095372;28;20043;-13
2022/04/09 05:21:10;;;;;;;23.23;12.55;;;9.40;85.80;;;;;;5095607;28;20476;-13
2022/04/09 05:23:37;;;;;;;47.67;17.98;;;9.50;85.80;;;;;;5095219;28;20522;-12
2022/04/09 05:26:03;;;;;;;38.55;18.33;;;9.50;85.70;;;;;;5095227;28;20028;-13
2022/04/09 05:28:29;;;;;;;31.77;13.95;;;9.60;85.60;;;;;;5093814;28;20447;-13
2022/04/09 05:30:55;;;;;;;31.95;15.43;;;9.60;85.80;;;;;;5095188;28;20518;-12
2022/04/09 05:33:21;;;;;;;43.55;18.40;;;9.60;86.50;;;;;;5095388;28;20028;-12
2022/04/09 05:35:47;;;;;;;47.65;19.60;;;9.80;87.00;;;;;;5095345;28;20031;-12
2022/04/09 05:38:13;;;;;;;49.97;20.48;;;9.90;87.40;;;;;;5094812;28;20028;-14
2022/04/09 05:40:39;;;;;;;31.40;18.60;;;10.10;87.20;;;;;;5094834;28;20032;-13
2022/04/09 05:43:06;;;;;;;35.03;18.98;;;10.20;86.80;;;;;;5094869;28;20057;-13
2022/04/09 05:45:32;;;;;;;35.05;18.73;;;10.40;86.70;;;;;;5094888;28;20024;-12
2022/04/09 05:47:58;;;;;;;32.47;19.98;;;10.50;86.60;;;;;;5094798;28;20031;-13
2022/04/09 05:50:24;;;;;;;40.72;21.45;;;10.70;86.80;;;;;;5092734;28;20032;-12
2022/04/09 05:52:50;;;;;;;36.40;18.40;;;10.80;86.90;;;;;;5094739;28;20059;-12
2022/04/09 05:55:17;;;;;;;30.85;17.95;;;10.80;86.60;;;;;;5093479;28;20059;-14
2022/04/09 05:57:43;;;;;;;36.90;21.25;;;11.00;86.80;;;;;;5094936;28;20077;-11
2022/04/09 06:00:11;;;;;;;35.50;17.27;;;11.30;86.30;;;;;;5094742;28;20032;-12
2022/04/09 06:02:39;;;;;;;30.02;16.60;;;11.60;86.30;;;;;;5094194;28;20036;-13
2022/04/09 06:05:07;;;;;;;31.23;17.55;;;11.90;86.10;;;;;;5094449;28;20052;-12
2022/04/09 06:07:33;;;;;;;31.48;18.90;;;12.40;85.80;;;;;;5094684;28;20020;-12
2022/04/09 06:09:59;;;;;;;33.10;17.70;;;12.70;84.40;;;;;;5094221;28;20044;-13
2022/04/09 06:12:25;;;;;;;21.95;12.68;;;12.80;83.80;;;;;;5093323;28;20366;-13
2022/04/09 06:14:51;;;;;;;28.40;17.00;;;12.90;83.50;;;;;;5093061;28;20127;-13
2022/04/09 06:17:17;;;;;;;26.90;14.43;;;13.10;83.30;;;;;;5094526;28;20108;-12
2022/04/09 06:19:44;;;;;;;24.92;13.25;;;13.20;82.70;;;;;;5094668;28;20157;-12
2022/04/09 06:22:10;;;;;;;22.40;14.30;;;13.40;82.70;;;;;;5094316;28;20034;-12
2022/04/09 06:24:35;;;;;;;24.13;14.40;;;13.70;82.70;;;;;;5094143;28;20111;-12
2022/04/09 06:27:01;;;;;;;30.60;17.02;;;13.90;82.00;;;;;;5094090;28;20476;-12
2022/04/09 06:29:28;;;;;;;20.13;13.00;;;14.30;81.80;;;;;;5094373;28;20082;-12
2022/04/09 06:31:54;;;;;;;21.15;12.35;;;14.50;80.80;;;;;;5094025;28;20046;-12
2022/04/09 06:34:19;;;;;;;25.33;15.15;;;14.70;80.00;;;;;;5093705;28;20032;-12
2022/04/09 06:36:45;;;;;;;24.92;14.50;;;14.90;78.50;;;;;;5092695;28;20032;-12
2022/04/09 06:39:11;;;;;;;21.95;13.70;;;15.10;78.20;;;;;;5093803;28;20472;-12
2022/04/09 06:41:37;;;;;;;18.90;11.77;;;15.20;77.60;;;;;;5093761;28;20020;-12
2022/04/09 06:44:04;;;;;;;22.55;13.43;;;15.30;76.80;;;;;;5093807;28;20039;-13
2022/04/09 06:46:30;;;;;;;18.52;11.75;;;15.30;77.30;;;;;;5093839;28;20067;-12
2022/04/09 06:48:56;;;;;;;20.35;12.15;;;15.30;77.30;;;;;;5093993;28;20059;-12
2022/04/09 06:51:24;;;;;;;19.67;12.95;;;15.40;77.10;;;;;;5093679;28;20051;-13
2022/04/09 06:53:51;;;;;;;21.20;12.52;;;15.40;76.80;;;;;;5093545;28;20115;-13
2022/04/09 06:56:16;;;;;;;20.33;12.32;;;15.50;77.00;;;;;;5093569;28;20038;-12
2022/04/09 06:58:42;;;;;;;27.35;15.07;;;15.80;77.00;;;;;;5093521;28;20391;-11
2022/04/09 07:01:09;;;;;;;25.00;12.98;;;16.10;75.30;;;;;;5092556;28;20027;-11
2022/04/09 07:03:36;;;;;;;21.77;12.98;;;16.50;74.40;;;;;;5093796;28;20050;-12
2022/04/09 07:06:02;;;;;;;23.92;14.27;;;16.90;74.20;;;;;;5093366;28;20484;-12
2022/04/09 07:08:28;;;;;;;21.65;13.77;;;17.20;72.80;;;;;;5092918;28;20097;-12
2022/04/09 07:10:53;;;;;;;20.45;13.38;;;17.50;71.00;;;;;;5093727;28;20070;-11
2022/04/09 07:13:19;;;;;;;21.40;13.07;;;17.70;70.60;;;;;;5093558;28;20024;-12
2022/04/09 07:15:46;;;;;;;22.75;13.25;;;17.90;69.30;;;;;;5093827;28;20032;-12
2022/04/09 07:18:12;;;;;;;21.70;12.93;;;18.00;68.90;;;;;;5093594;28;20056;-12
2022/04/09 07:20:40;;;;;;;18.58;10.38;;;18.20;68.30;;;;;;5093219;28;20090;-15
2022/04/09 07:23:06;;;;;;;20.70;10.77;;;18.40;68.00;;;;;;5093541;28;20032;-12
2022/04/09 07:25:33;;;;;;;19.08;9.75;;;18.60;67.30;;;;;;5093713;28;20060;-12
2022/04/09 07:27:59;;;;;;;18.50;10.90;;;18.80;66.70;;;;;;5093167;28;20484;-11
2022/04/09 07:30:26;;;;;;;17.77;9.60;;;19.00;65.40;;;;;;5092943;28;20077;-12
2022/04/09 07:32:58;;;;;;;16.52;8.68;;;19.20;64.60;;;;;;5093374;28;20043;-12
2022/04/09 07:35:25;;;;;;;16.23;8.13;;;19.40;63.90;;;;;;5093601;28;20048;-12
2022/04/09 07:37:54;;;;;;;14.57;8.32;;;19.60;63.60;;;;;;5091844;28;20024;-12
2022/04/09 07:40:22;;;;;;;14.57;8.68;;;19.70;62.60;;;;;;5092658;28;20550;-12
2022/04/09 07:42:48;;;;;;;19.73;9.35;;;19.90;61.90;;;;;;5093679;28;20024;-12
2022/04/09 07:45:15;;;;;;;12.73;7.13;;;19.90;62.00;;;;;;5093045;28;20020;-11
2022/04/09 07:47:42;;;;;;;19.33;9.82;;;19.90;61.50;;;;;;5092932;28;20400;-12
2022/04/09 07:50:10;;;;;;;14.23;8.02;;;20.00;60.90;;;;;;5093293;28;20035;-12
2022/04/09 07:52:39;;;;;;;12.60;7.07;;;20.10;61.20;;;;;;5092721;28;20024;-11
2022/04/09 07:55:07;;;;;;;16.85;8.73;;;20.30;61.30;;;;;;5093007;28;20020;-12
2022/04/09 07:57:33;;;;;;;14.15;7.78;;;20.40;60.40;;;;;;5092896;28;20415;-12
2022/04/09 07:59:59;;;;;;;18.45;8.43;;;20.20;60.40;;;;;;5093421;28;20028;-12
2022/04/09 08:02:25;;;;;;;16.27;8.05;;;20.10;60.90;;;;;;5091305;28;20480;-12
2022/04/09 08:04:52;;;;;;;13.80;6.95;;;20.10;60.00;;;;;;5092848;28;20032;-13
2022/04/09 08:07:18;;;;;;;15.27;8.02;;;20.10;61.30;;;;;;5092801;28;20381;-12
2022/04/09 08:09:44;;;;;;;16.50;7.72;;;20.30;60.30;;;;;;5092441;28;20036;-11
2022/04/09 08:12:12;;;;;;;17.00;8.20;;;20.20;61.00;;;;;;5093530;28;20060;-11
2022/04/09 08:14:42;;;;;;;16.73;8.73;;;20.20;61.10;;;;;;5096641;28;20024;-12
2022/04/09 08:17:09;;;;;;;14.95;7.35;;;20.40;60.80;;;;;;5096918;28;20028;-12
2022/04/09 08:19:36;;;;;;;12.82;7.13;;;20.50;60.40;;;;;;5096762;28;20024;-12
2022/04/09 08:22:06;;;;;;;14.25;8.10;;;20.60;60.40;;;;;;5096475;28;20028;-12
2022/04/09 08:24:32;;;;;;;16.42;8.57;;;20.80;59.40;;;;;;5096273;28;20028;-12
2022/04/09 08:26:58;;;;;;;17.80;8.63;;;20.80;58.70;;;;;;5096420;28;20429;-12
2022/04/09 08:29:24;;;;;;;14.63;7.43;;;20.70;58.80;;;;;;5097538;28;20035;-12
2022/04/09 08:31:51;;;;;;;17.88;9.20;;;20.60;59.40;;;;;;5096320;28;20101;-12
2022/04/09 08:34:19;;;;;;;17.35;8.02;;;20.70;57.90;;;;;;5096071;28;20039;-12
2022/04/09 08:36:46;;;;;;;17.23;8.57;;;20.80;57.20;;;;;;5096533;28;20032;-12
2022/04/09 08:39:13;;;;;;;14.45;7.95;;;21.00;56.90;;;;;;5096506;28;20028;-12
2022/04/09 08:41:42;;;;;;;15.43;8.10;;;21.20;55.60;;;;;;5096229;28;20016;-12
2022/04/09 08:44:08;;;;;;;15.27;8.07;;;21.50;55.00;;;;;;5096034;28;20035;-12
2022/04/09 08:46:35;;;;;;;20.60;9.32;;;21.80;53.60;;;;;;5095841;28;20206;-12
2022/04/09 08:49:06;;;;;;;18.33;8.90;;;22.00;53.20;;;;;;5096000;28;20028;-12
2022/04/09 08:51:33;;;;;;;17.25;7.72;;;22.00;53.20;;;;;;5095934;28;20020;-11
2022/04/09 08:54:04;;;;;;;16.52;7.78;;;22.20;51.20;;;;;;5095819;28;20052;-12
2022/04/09 08:56:36;;;;;;;13.20;7.07;;;22.30;51.50;;;;;;5095684;28;20039;-11
2022/04/09 08:59:04;;;;;;;20.42;8.60;;;22.40;52.20;;;;;;5096467;28;20387;-12
2022/04/09 09:01:30;;;;;;;15.18;6.57;;;22.60;52.00;;;;;;5096014;28;20032;-12
2022/04/09 09:03:57;;;;;;;19.85;8.32;;;22.70;52.10;;;;;;5095693;28;20114;-12
2022/04/09 09:06:27;;;;;;;15.00;7.65;;;22.80;52.00;;;;;;5095399;28;20024;-12
2022/04/09 09:08:54;;;;;;;15.18;7.38;;;22.60;52.50;;;;;;5095283;28;20102;-12
2022/04/09 09:11:21;;;;;;;15.02;6.45;;;22.60;52.70;;;;;;5095881;28;20024;-12
2022/04/09 09:13:52;;;;;;;17.35;7.07;;;22.70;53.00;;;;;;5095816;28;20035;-12
2022/04/09 09:16:36;;;;;;;15.02;8.02;;;22.90;51.20;;;;;;5095266;28;20507;-12
2022/04/09 09:19:04;;;;;;;13.48;7.35;;;23.30;49.60;;;;;;5095869;28;20454;-12
2022/04/09 09:21:31;;;;;;;13.77;7.80;;;23.40;50.10;;;;;;5095301;28;20171;-12
2022/04/09 09:24:14;;;;;;;11.73;5.82;;;23.40;49.30;;;;;;5094521;28;20176;-12
2022/04/09 09:26:41;;;;;;;13.85;7.22;;;23.20;49.60;;;;;;5095558;28;20024;-11
2022/04/09 09:29:11;;;;;;;15.43;5.70;;;23.30;50.20;;;;;;5095826;28;20354;-12
2022/04/09 09:31:42;;;;;;;12.57;6.75;;;23.40;50.20;;;;;;5095135;28;20505;-12
2022/04/09 09:34:16;;;;;;;17.25;7.05;;;23.70;49.20;;;;;;5095157;28;20054;-12
2022/04/09 09:36:43;;;;;;;19.77;9.75;;;23.80;48.80;;;;;;5095099;28;20035;-12
2022/04/09 09:39:12;;;;;;;15.90;8.73;;;23.40;49.00;;;;;;5095240;28;20072;-11
2022/04/09 09:41:56;;;;;;;16.38;8.38;;;22.90;49.10;;;;;;5094900;28;20028;-12
2022/04/09 09:44:24;;;;;;;12.30;6.32;;;22.20;50.10;;;;;;5095016;28;20024;-12
2022/04/09 09:46:51;;;;;;;15.75;7.75;;;21.90;51.80;;;;;;5095184;28;20047;-12
2022/04/09 09:49:20;;;;;;;15.50;6.57;;;21.90;51.60;;;;;;5094823;28;20028;-12
2022/04/09 09:52:06;;;;;;;16.77;7.45;;;21.80;51.30;;;;;;5094753;28;20024;-12
2022/04/09 09:54:33;;;;;;;17.98;7.60;;;21.80;51.60;;;;;;5094490;28;20472;-12
2022/04/09 09:57:00;;;;;;;16.17;6.43;;;22.00;51.00;;;;;;5095274;28;20067;-11
2022/04/09 09:59:28;;;;;;;19.98;8.10;;;22.30;49.90;;;;;;5094963;28;20035;-12
2022/04/09 10:01:55;;;;;;;12.10;6.43;;;22.30;49.80;;;;;;5095050;28;20128;-12
2022/04/09 10:04:22;;;;;;;15.45;7.47;;;22.40;49.90;;;;;;5095157;28;20472;-12
2022/04/09 10:06:48;;;;;;;11.65;5.57;;;22.70;48.20;;;;;;5093346;28;20027;-12
2022/04/09 10:09:14;;;;;;;16.25;6.78;;;23.00;48.90;;;;;;5094392;28;20040;-11
2022/04/09 10:11:46;;;;;;;14.27;6.13;;;23.50;47.70;;;;;;5094414;28;20016;-12
2022/04/09 10:14:17;;;;;;;14.88;6.85;;;24.00;47.20;;;;;;5094766;28;20089;-12
2022/04/09 10:16:45;;;;;;;12.38;5.75;;;24.40;45.70;;;;;;5094310;28;20027;-11
2022/04/09 10:19:11;;;;;;;13.70;6.60;;;24.70;44.50;;;;;;5094607;28;20115;-12
2022/04/09 10:21:46;;;;;;;13.90;5.82;;;24.90;42.60;;;;;;5092919;28;20028;-12
2022/04/09 10:24:21;;;;;;;13.27;5.78;;;25.20;42.80;;;;;;5094151;28;20024;-13
2022/04/09 10:26:47;;;;;;;15.48;6.20;;;25.50;42.00;;;;;;5094150;28;20027;-11
2022/04/09 10:29:14;;;;;;;12.05;5.82;;;25.80;42.20;;;;;;5094391;28;20107;-11
2022/04/09 10:31:43;;;;;;;12.65;5.15;;;25.70;42.00;;;;;;5094049;28;20476;-12
2022/04/09 10:34:16;;;;;;;16.42;6.25;;;25.60;42.70;;;;;;5093970;28;20031;-11
2022/04/09 10:36:45;;;;;;;12.98;5.45;;;25.80;42.10;;;;;;5093783;28;20380;-12
2022/04/09 10:39:22;;;;;;;14.23;5.50;;;25.70;42.00;;;;;;5093755;28;20039;-12
2022/04/09 10:41:54;;;;;;;12.30;5.97;;;25.90;42.10;;;;;;5093744;28;20373;-11
2022/04/09 10:44:50;;;;;;;18.07;7.90;;;26.20;40.00;;;;;;5093896;28;20125;-11
2022/04/09 10:47:16;;;;;;;13.45;5.28;;;26.50;39.70;;;;;;5076008;28;20028;-11
2022/04/09 10:50:05;;;;;;;14.57;6.05;;;26.60;40.60;;;;;;5094000;28;20024;-10
2022/04/09 10:52:33;;;;;;;10.30;5.47;;;27.00;39.70;;;;;;5093441;28;20488;-13
2022/04/09 10:55:23;;;;;;;11.00;5.30;;;27.40;39.30;;;;;;5093715;28;20054;-11
2022/04/09 10:57:52;;;;;;;13.95;6.05;;;27.90;38.70;;;;;;5081563;28;20559;-12
2022/04/09 11:00:22;;;;;;;13.70;5.85;;;28.00;39.00;;;;;;5093681;28;20090;-12
2022/04/09 11:03:25;;;;;;;14.65;6.88;;;28.10;38.60;;;;;;5093775;28;20040;-11
2022/04/09 11:06:11;;;;;;;12.57;5.88;;;28.00;36.80;;;;;;5093900;28;20035;-11
2022/04/09 11:08:40;;;;;;;12.95;7.40;;;27.70;38.40;;;;;;5092779;28;20504;-11
2022/04/09 11:11:08;;;;;;;9.52;5.15;;;27.40;37.60;;;;;;5093402;28;20039;-11
2022/04/09 11:13:34;;;;;;;11.30;5.07;;;27.20;38.60;;;;;;5093565;28;20016;-11
2022/04/09 11:16:01;;;;;;;17.48;6.45;;;27.10;39.10;;;;;;5093658;28;20032;-12
2022/04/09 11:18:29;;;;;;;11.23;5.13;;;26.90;39.10;;;;;;5091883;28;20505;-11
2022/04/09 11:20:55;;;;;;;11.00;5.93;;;26.60;38.90;;;;;;5093512;28;20036;-12
2022/04/09 11:23:21;;;;;;;13.15;5.40;;;26.40;39.00;;;;;;5093248;28;20020;-11
2022/04/09 11:25:50;;;;;;;12.57;5.63;;;26.50;39.10;;;;;;5093237;28;20030;-11
2022/04/09 11:28:18;;;;;;;10.25;5.00;;;27.00;38.70;;;;;;5093271;28;20036;-11
2022/04/09 11:31:00;;;;;;;9.55;4.65;;;27.40;38.10;;;;;;5093167;28;20577;-12
2022/04/09 11:33:27;;;;;;;7.40;3.17;;;27.20;38.20;;;;;;5093116;28;20028;-11
2022/04/09 11:35:53;;;;;;;7.95;3.08;;;27.00;36.40;;;;;;5093098;28;20508;-11
2022/04/09 11:38:23;;;;;;;5.22;2.38;;;26.30;35.60;;;;;;5092960;28;20031;-11
2022/04/09 11:40:50;;;;;;;7.50;2.58;;;24.80;37.10;;;;;;5093155;28;20487;-11
2022/04/09 11:43:18;;;;;;;8.75;3.25;;;23.90;38.60;;;;;;5093056;28;20032;-11
2022/04/09 11:45:45;;;;;;;10.80;3.30;;;22.80;40.50;;;;;;5093617;28;20027;-12
2022/04/09 11:48:16;;;;;;;6.05;3.17;;;22.50;42.10;;;;;;5094351;28;20074;-11
2022/04/09 11:50:43;;;;;;;11.32;4.85;;;21.90;43.20;;;;;;5097807;28;20069;-12
2022/04/09 11:56:32;;;;;;;13.18;3.63;;;21.60;44.70;;;;;;5097126;28;20050;-12
2022/04/09 11:58:57;;;;;;;11.32;2.80;;;21.40;43.60;;;;;;5096968;28;20028;-12
2022/04/09 12:01:25;;;;;;;5.45;2.10;;;20.10;45.70;;;;;;5097064;28;20118;-12
2022/04/09 12:03:52;;;;;;;3.60;1.38;;;19.10;46.50;;;;;;5096855;28;20028;-12
2022/04/09 12:06:18;;;;;;;5.18;1.30;;;18.10;46.60;;;;;;5096914;28;20503;-13
2022/04/09 12:08:44;;;;;;;5.15;1.17;;;17.50;46.70;;;;;;5096445;28;20052;-12
2022/04/09 12:11:11;;;;;;;6.53;1.00;;;17.10;48.20;;;;;;5096999;28;20500;-12
2022/04/09 12:13:39;;;;;;;2.00;0.70;;;16.90;48.80;;;;;;5096741;28;20094;-13
2022/04/09 12:16:13;;;;;;;2.50;0.60;;;16.60;49.10;;;;;;5096972;28;20028;-12
2022/04/09 12:18:40;;;;;;;3.33;0.90;;;16.60;47.50;;;;;;5096633;28;20039;-12
2022/04/09 12:21:27;;;;;;;0.98;0.65;;;16.40;48.40;;;;;;5096435;28;20380;-12
2022/04/09 12:24:03;;;;;;;3.90;0.77;;;15.80;50.50;;;;;;5096441;28;20515;-13
2022/04/09 12:26:32;;;;;;;3.10;0.80;;;15.40;54.80;;;;;;5096235;28;20024;-13
2022/04/09 12:29:22;;;;;;;5.22;1.45;;;15.10;56.10;;;;;;5096419;28;20024;-12
2022/04/09 12:31:51;;;;;;;1.55;0.65;;;14.80;55.10;;;;;;5096435;28;20032;-12
2022/04/09 12:34:19;;;;;;;3.15;0.80;;;14.60;55.60;;;;;;5096367;28;20060;-13
2022/04/09 12:37:04;;;;;;;7.93;1.30;;;14.30;55.90;;;;;;5096266;28;20016;-13
2022/04/09 12:39:32;;;;;;;16.75;2.50;;;14.00;56.20;;;;;;5096415;28;20024;-12
2022/04/09 12:41:58;;;;;;;12.68;2.20;;;13.70;57.20;;;;;;5096080;28;20107;-13